Time;durP1;ratioP1;P1;durP2;ratioP2;P2;SDS_P1;SDS_P2;PMS_P1;PMS_P2;Temp;Humidity;BMP_temperature;BMP_pressure;BME280_temperature;BME280_humidity;BME280_pressure;Samples;Min_cycle;Max_cycle;Signal;HPM_P1;HPM_P2
2022/07/01 00:01:26;;;;;;;1.30;1.15;;;12.50;99.90;;;;;;4956212;28;20150;-91
2022/07/01 00:03:51;;;;;;;1.27;1.10;;;12.50;99.90;;;;;;4956545;29;20126;-84
2022/07/01 00:06:21;;;;;;;2.55;1.40;;;12.50;99.90;;;;;;4956898;29;20023;-89
2022/07/01 00:08:47;;;;;;;2.70;1.23;;;12.50;99.90;;;;;;4958091;28;20035;-92
2022/07/01 00:11:14;;;;;;;1.73;1.25;;;12.50;99.90;;;;;;4953712;29;20059;-93
2022/07/01 00:13:40;;;;;;;3.20;1.38;;;12.50;99.90;;;;;;4954573;28;20043;-91
2022/07/01 00:16:05;;;;;;;2.08;1.60;;;12.60;99.90;;;;;;4954975;29;20106;-91
2022/07/01 00:18:31;;;;;;;1.75;1.50;;;12.60;99.90;;;;;;4954693;29;20043;-84
2022/07/01 00:20:57;;;;;;;2.00;1.70;;;12.60;99.90;;;;;;4955970;29;20031;-91
2022/07/01 00:23:23;;;;;;;2.30;1.60;;;12.50;99.90;;;;;;4954965;29;20034;-90
2022/07/01 00:25:48;;;;;;;2.28;1.65;;;12.50;99.90;;;;;;4955495;28;20027;-93
2022/07/01 00:28:14;;;;;;;3.45;1.85;;;12.50;99.90;;;;;;4954861;28;20047;-93
2022/07/01 00:30:40;;;;;;;4.45;1.80;;;12.40;99.90;;;;;;4955096;29;20031;-92
2022/07/01 00:33:06;;;;;;;3.40;1.80;;;12.40;99.90;;;;;;4955229;29;20024;-87
2022/07/01 00:35:31;;;;;;;1.90;1.50;;;12.40;99.90;;;;;;4969294;28;20030;-89
2022/07/01 00:37:57;;;;;;;3.22;1.70;;;12.40;99.90;;;;;;4954242;29;20039;-93
2022/07/01 00:40:26;;;;;;;2.22;1.90;;;12.40;99.90;;;;;;4954841;28;20110;-83
2022/07/01 00:42:52;;;;;;;2.05;1.88;;;12.40;99.90;;;;;;4954950;28;20031;-93
2022/07/01 00:45:19;;;;;;;1.88;1.75;;;12.40;99.90;;;;;;4968353;28;20377;-89
2022/07/01 00:47:45;;;;;;;1.95;1.83;;;12.40;99.90;;;;;;4954035;28;20039;-93
2022/07/01 00:50:13;;;;;;;2.55;1.80;;;12.50;99.90;;;;;;4953916;28;20054;-93
2022/07/01 00:52:40;;;;;;;2.53;1.80;;;12.50;99.90;;;;;;4952901;29;20039;-88
2022/07/01 00:55:08;;;;;;;3.20;1.88;;;12.40;99.90;;;;;;4969792;28;20032;-94
2022/07/01 00:57:36;;;;;;;3.65;2.08;;;12.30;99.90;;;;;;4958087;28;20027;-83
2022/07/01 01:00:05;;;;;;;3.03;2.17;;;12.20;99.90;;;;;;4975071;28;20059;-94
2022/07/01 01:02:31;;;;;;;2.17;1.98;;;12.20;99.90;;;;;;4960736;28;20023;-93
2022/07/01 01:04:57;;;;;;;1.80;1.70;;;12.20;99.90;;;;;;4957030;29;20023;-89
2022/07/01 01:07:23;;;;;;;2.53;1.83;;;12.20;99.90;;;;;;4958680;29;20050;-94
2022/07/01 01:09:50;;;;;;;3.15;1.90;;;12.10;99.90;;;;;;4959549;28;20102;-95
2022/07/01 01:12:17;;;;;;;2.65;1.70;;;12.10;99.90;;;;;;4956173;28;20099;-83
2022/07/01 01:14:52;;;;;;;3.08;2.00;;;12.00;99.90;;;;;;4968659;28;20518;-93
2022/07/01 01:17:20;;;;;;;4.18;1.80;;;12.00;99.90;;;;;;4952644;28;20036;-83
2022/07/01 01:19:46;;;;;;;;;;;12.10;99.90;;;;;;4953822;28;20518;-88
2022/07/01 01:22:15;;;;;;;2.05;1.83;;;12.10;99.90;;;;;;4953503;28;19906;-86
2022/07/01 01:24:41;;;;;;;1.88;1.77;;;12.10;99.90;;;;;;4952927;28;20106;-83
2022/07/01 01:27:07;;;;;;;5.45;2.10;;;12.10;99.90;;;;;;4953362;28;20020;-92
2022/07/01 01:29:35;;;;;;;4.00;2.00;;;12.10;99.90;;;;;;4954202;29;20020;-90
2022/07/01 01:32:02;;;;;;;3.63;2.00;;;12.00;99.90;;;;;;4954147;28;20128;-90
2022/07/01 01:34:28;;;;;;;1.83;1.70;;;12.10;99.90;;;;;;4954555;28;20063;-94
2022/07/01 01:36:53;;;;;;;4.20;1.98;;;12.10;99.90;;;;;;4962045;28;20487;-83
2022/07/01 01:39:20;;;;;;;2.70;1.60;;;12.10;99.90;;;;;;4974505;29;20019;-83
2022/07/01 01:41:46;;;;;;;2.90;1.90;;;12.10;99.90;;;;;;4990495;28;20366;-83
2022/07/01 01:44:12;;;;;;;2.53;1.83;;;12.10;99.90;;;;;;4973420;28;20027;-89
2022/07/01 01:46:38;;;;;;;3.95;2.22;;;12.00;99.90;;;;;;4968874;28;20027;-94
2022/07/01 01:49:05;;;;;;;2.35;2.10;;;12.00;99.90;;;;;;4953503;29;20090;-88
2022/07/01 01:51:31;;;;;;;2.53;1.98;;;12.00;99.90;;;;;;4953076;28;20031;-93
2022/07/01 01:53:57;;;;;;;2.60;2.40;;;11.90;99.90;;;;;;4951983;28;20032;-83
2022/07/01 01:56:24;;;;;;;2.05;1.83;;;11.90;99.90;;;;;;4952753;28;20097;-83
2022/07/01 01:58:50;;;;;;;5.05;2.00;;;11.90;99.90;;;;;;4952428;28;20031;-88
2022/07/01 02:01:17;;;;;;;3.00;1.95;;;11.90;99.90;;;;;;4952632;29;20023;-83
2022/07/01 02:03:44;;;;;;;3.15;1.80;;;11.90;99.90;;;;;;4951492;28;20031;-91
2022/07/01 02:06:11;;;;;;;4.60;1.92;;;11.90;99.90;;;;;;4952813;28;20026;-83
2022/07/01 02:08:38;;;;;;;2.75;1.80;;;11.80;99.90;;;;;;4952341;29;20155;-91
2022/07/01 02:11:04;;;;;;;3.15;2.05;;;11.90;99.90;;;;;;4953060;28;20074;-94
2022/07/01 02:13:30;;;;;;;3.40;2.15;;;11.90;99.90;;;;;;4952974;28;20122;-94
2022/07/01 02:15:59;;;;;;;2.40;1.90;;;11.90;99.90;;;;;;4953736;28;20090;-87
2022/07/01 02:18:24;;;;;;;;;;;11.90;99.90;;;;;;4972934;28;20507;-91
2022/07/01 02:20:50;;;;;;;2.85;2.05;;;12.00;99.90;;;;;;4953083;28;19953;-91
2022/07/01 02:23:16;;;;;;;2.60;2.20;;;12.00;99.90;;;;;;4952089;29;20083;-84
2022/07/01 02:25:42;;;;;;;5.28;2.10;;;12.00;99.90;;;;;;4952134;28;20027;-87
2022/07/01 02:28:09;;;;;;;5.47;2.20;;;12.00;99.90;;;;;;4956234;28;20011;-90
2022/07/01 02:30:37;;;;;;;4.00;2.47;;;12.00;99.90;;;;;;4951872;28;20435;-88
2022/07/01 02:33:05;;;;;;;4.72;2.10;;;12.00;99.90;;;;;;4952016;29;20027;-86
2022/07/01 02:35:31;;;;;;;3.90;2.37;;;12.00;99.90;;;;;;4950829;28;20027;-90
2022/07/01 02:37:57;;;;;;;5.82;2.38;;;12.00;99.90;;;;;;4952779;28;20039;-83
2022/07/01 02:40:23;;;;;;;4.60;2.60;;;12.00;99.90;;;;;;4951171;28;20034;-83
2022/07/01 02:42:49;;;;;;;4.65;2.38;;;12.00;99.90;;;;;;4951184;29;20331;-83
2022/07/01 02:45:14;;;;;;;3.72;2.00;;;12.00;99.90;;;;;;4951240;29;20089;-83
2022/07/01 02:47:41;;;;;;;2.78;2.17;;;12.00;99.90;;;;;;4951158;29;20442;-83
2022/07/01 02:50:09;;;;;;;4.38;2.13;;;11.90;99.90;;;;;;4951559;28;20024;-88
2022/07/01 02:52:37;;;;;;;4.13;2.00;;;11.90;99.90;;;;;;4951582;28;20173;-88
2022/07/01 02:55:05;;;;;;;3.00;2.13;;;11.80;99.90;;;;;;4951546;28;20031;-91
2022/07/01 02:57:31;;;;;;;3.28;2.03;;;11.70;99.90;;;;;;4951591;28;20046;-83
2022/07/01 02:59:57;;;;;;;2.58;1.90;;;11.70;99.90;;;;;;4952983;28;20035;-90
2022/07/01 03:02:23;;;;;;;3.35;2.00;;;11.60;99.90;;;;;;4952458;28;20054;-91
2022/07/01 03:04:50;;;;;;;2.95;1.60;;;11.60;99.90;;;;;;4951799;28;20027;-91
2022/07/01 03:07:17;;;;;;;2.83;1.58;;;11.50;99.90;;;;;;4951496;28;20062;-90
2022/07/01 03:09:43;;;;;;;3.13;1.40;;;11.50;99.90;;;;;;4951392;28;20027;-83
2022/07/01 03:12:27;;;;;;;1.35;1.25;;;11.50;99.90;;;;;;4965460;28;20034;-83
2022/07/01 03:14:57;;;;;;;1.52;1.30;;;11.50;99.90;;;;;;4950799;28;20023;-82
2022/07/01 03:17:23;;;;;;;2.90;1.40;;;11.40;99.90;;;;;;4950787;28;20034;-82
2022/07/01 03:19:51;;;;;;;4.05;1.70;;;11.40;99.90;;;;;;4950720;28;20106;-82
2022/07/01 03:22:17;;;;;;;5.03;1.80;;;11.30;99.90;;;;;;4965568;28;20034;-81
2022/07/01 03:24:43;;;;;;;2.33;1.77;;;11.30;99.90;;;;;;4950684;28;20110;-82
2022/07/01 03:27:09;;;;;;;3.28;1.80;;;11.30;99.90;;;;;;4967654;28;20130;-83
2022/07/01 03:29:35;;;;;;;2.22;1.95;;;11.20;99.90;;;;;;4954585;28;20494;-83
2022/07/01 03:32:00;;;;;;;2.55;1.70;;;11.20;99.90;;;;;;4955234;28;20027;-82
2022/07/01 03:34:26;;;;;;;3.33;2.05;;;11.20;99.90;;;;;;4954393;29;20090;-83
2022/07/01 03:36:52;;;;;;;2.05;1.70;;;11.20;99.90;;;;;;4954323;29;20570;-82
2022/07/01 03:39:17;;;;;;;2.47;1.70;;;11.20;99.90;;;;;;4955129;29;20034;-92
2022/07/01 03:41:44;;;;;;;7.43;1.80;;;11.30;99.90;;;;;;4955087;29;20034;-92
2022/07/01 03:44:09;;;;;;;5.10;1.75;;;11.20;99.90;;;;;;4955168;29;20130;-92
2022/07/01 03:46:35;;;;;;;2.88;1.90;;;11.30;99.90;;;;;;4955269;28;20491;-93
2022/07/01 03:49:02;;;;;;;3.65;2.00;;;11.20;99.90;;;;;;4955872;29;20106;-92
2022/07/01 03:51:28;;;;;;;1.85;1.75;;;11.10;99.90;;;;;;4955600;28;20061;-90
2022/07/01 03:56:38;;;;;;;3.92;2.17;;;11.10;99.90;;;;;;4957385;29;20078;-91
2022/07/01 03:59:04;;;;;;;3.88;2.55;;;11.10;99.90;;;;;;4971609;28;20039;-83
2022/07/01 04:01:29;;;;;;;2.83;1.90;;;11.00;99.90;;;;;;4957871;29;20062;-94
2022/07/01 04:03:55;;;;;;;4.40;2.00;;;11.00;99.90;;;;;;4955104;29;20182;-93
2022/07/01 04:06:21;;;;;;;3.50;2.08;;;11.00;99.90;;;;;;4954731;29;20023;-93
2022/07/01 04:08:48;;;;;;;5.03;1.80;;;11.10;99.90;;;;;;4956559;28;20034;-83
2022/07/01 04:11:15;;;;;;;3.50;1.98;;;11.00;99.90;;;;;;4955201;28;20027;-86
2022/07/01 04:13:41;;;;;;;4.57;2.40;;;11.10;99.90;;;;;;4955985;28;20039;-83
2022/07/01 04:16:07;;;;;;;4.80;2.58;;;11.10;99.90;;;;;;4967330;29;20062;-83
2022/07/01 04:18:33;;;;;;;4.78;2.65;;;11.10;99.90;;;;;;4966661;28;20039;-83
2022/07/01 04:23:43;;;;;;;3.95;2.25;;;11.10;99.90;;;;;;4963375;29;20038;-85
2022/07/01 04:26:09;;;;;;;3.22;2.20;;;11.20;99.90;;;;;;4955066;29;20024;-84
2022/07/01 04:28:35;;;;;;;2.63;2.42;;;11.20;99.90;;;;;;4956167;28;20596;-82
2022/07/01 04:31:00;;;;;;;3.45;2.50;;;11.20;99.90;;;;;;4954271;29;20023;-82
2022/07/01 04:33:26;;;;;;;5.45;2.60;;;11.20;99.90;;;;;;4953939;29;20031;-82
2022/07/01 04:35:52;;;;;;;3.40;2.90;;;11.20;99.90;;;;;;4953830;29;20148;-87
2022/07/01 04:38:18;;;;;;;3.47;2.47;;;11.20;99.90;;;;;;4953024;28;20043;-86
2022/07/01 04:41:58;;;;;;;5.07;2.70;;;11.20;99.90;;;;;;4953834;29;20028;-83
2022/07/01 04:43:29;;;;;;;6.75;2.42;;;11.20;99.90;;;;;;4940442;28;20027;-83
2022/07/01 04:45:55;;;;;;;4.43;2.70;;;11.20;99.90;;;;;;4947510;28;20371;-83
2022/07/01 04:48:21;;;;;;;4.63;2.70;;;11.20;99.90;;;;;;4952146;28;20117;-89
2022/07/01 04:50:46;;;;;;;2.88;2.53;;;11.20;99.90;;;;;;4952677;28;20023;-90
2022/07/01 04:53:15;;;;;;;2.88;2.58;;;11.20;99.90;;;;;;4952721;28;20546;-90
2022/07/01 04:55:40;;;;;;;;;;;11.20;99.90;;;;;;4952918;28;20023;-90
2022/07/01 04:58:06;;;;;;;2.80;2.42;;;11.10;99.90;;;;;;4951886;28;20405;-86
2022/07/01 05:00:32;;;;;;;2.65;2.10;;;11.10;99.90;;;;;;4953106;28;20035;-83
2022/07/01 05:02:57;;;;;;;4.82;2.40;;;11.20;99.90;;;;;;4952373;28;20051;-94
2022/07/01 05:05:23;;;;;;;3.15;2.28;;;11.20;99.90;;;;;;4960255;28;20035;-89
2022/07/01 05:07:49;;;;;;;2.38;1.95;;;11.20;99.90;;;;;;4987221;28;20037;-88
2022/07/01 05:10:15;;;;;;;2.10;1.90;;;11.20;99.90;;;;;;4972601;28;20029;-92
2022/07/01 05:12:40;;;;;;;2.63;1.83;;;11.20;99.90;;;;;;4972737;28;20030;-88
2022/07/01 05:15:07;;;;;;;1.50;1.40;;;11.20;99.90;;;;;;4989059;28;20057;-84
2022/07/01 05:23:02;;;;;;;1.58;1.48;;;11.20;99.90;;;;;;4973344;28;20395;-84
2022/07/01 05:25:28;;;;;;;1.40;1.30;;;11.30;99.90;;;;;;4972071;28;20019;-91
2022/07/01 05:27:56;;;;;;;1.75;1.50;;;11.30;99.90;;;;;;4972021;28;20027;-83
2022/07/01 05:30:22;;;;;;;1.70;1.60;;;11.30;99.90;;;;;;4972005;28;20034;-84
2022/07/01 05:32:48;;;;;;;1.58;1.48;;;11.30;99.90;;;;;;4971898;28;20031;-84
2022/07/01 05:35:14;;;;;;;1.65;1.55;;;11.40;99.90;;;;;;4971902;28;20034;-84
2022/07/01 05:37:40;;;;;;;2.45;1.98;;;11.40;99.90;;;;;;4971085;28;20062;-83
2022/07/01 05:40:07;;;;;;;5.45;1.83;;;11.40;99.90;;;;;;4972142;28;20110;-83
2022/07/01 05:42:32;;;;;;;2.33;1.85;;;11.50;99.90;;;;;;4971897;28;20522;-92
2022/07/01 05:44:58;;;;;;;5.40;2.35;;;11.50;99.90;;;;;;4970577;28;20031;-84
2022/07/01 05:47:23;;;;;;;7.22;2.03;;;11.60;99.90;;;;;;4971608;28;20509;-92
2022/07/01 05:49:49;;;;;;;3.63;1.80;;;11.70;99.90;;;;;;4971790;28;20548;-92
2022/07/01 05:52:15;;;;;;;2.28;2.08;;;11.70;99.90;;;;;;4971918;28;20027;-92
2022/07/01 05:54:40;;;;;;;1.95;1.60;;;11.80;99.90;;;;;;4987132;28;20027;-90
2022/07/01 05:57:06;;;;;;;3.47;2.13;;;11.80;99.90;;;;;;4972583;28;20041;-92
2022/07/01 05:59:32;;;;;;;3.72;2.13;;;11.80;99.90;;;;;;4971676;28;20037;-92
2022/07/01 06:01:58;;;;;;;3.47;2.20;;;11.90;99.90;;;;;;4971909;28;20058;-89
2022/07/01 06:04:23;;;;;;;3.25;2.08;;;12.00;99.90;;;;;;4971704;28;20134;-91
2022/07/01 06:06:49;;;;;;;5.03;2.25;;;12.00;99.90;;;;;;4971583;28;20026;-89
2022/07/01 06:09:14;;;;;;;4.63;2.42;;;12.00;99.90;;;;;;4971640;28;20102;-90
2022/07/01 06:11:40;;;;;;;4.72;2.40;;;12.10;99.90;;;;;;4971280;28;20023;-90
2022/07/01 06:14:06;;;;;;;4.15;2.40;;;12.10;99.90;;;;;;4972561;28;20049;-92
2022/07/01 06:16:31;;;;;;;3.75;2.95;;;12.20;99.90;;;;;;4971749;28;20034;-89
2022/07/01 06:18:57;;;;;;;6.90;2.92;;;12.20;99.90;;;;;;4971449;28;20034;-91
2022/07/01 06:21:23;;;;;;;4.80;2.58;;;12.30;99.90;;;;;;4971511;28;20042;-92
2022/07/01 06:23:49;;;;;;;6.63;3.03;;;12.40;99.90;;;;;;4971671;28;20035;-92
2022/07/01 06:26:14;;;;;;;4.88;2.83;;;12.40;99.90;;;;;;4971606;28;20153;-90
2022/07/01 06:28:41;;;;;;;6.00;2.80;;;12.50;99.90;;;;;;4986794;28;20030;-84
2022/07/01 06:31:07;;;;;;;8.07;3.17;;;12.60;99.90;;;;;;4987315;28;20027;-87
2022/07/01 06:33:33;;;;;;;6.57;2.78;;;12.70;99.90;;;;;;4971797;28;20019;-91
2022/07/01 06:35:58;;;;;;;6.60;2.72;;;12.80;99.90;;;;;;4971616;28;20029;-92
2022/07/01 06:38:25;;;;;;;6.78;2.65;;;12.80;99.90;;;;;;4986533;28;20038;-92
2022/07/01 06:43:35;;;;;;;7.00;2.70;;;12.90;99.90;;;;;;4972296;28;20038;-93
2022/07/01 06:46:02;;;;;;;8.00;3.03;;;13.00;99.90;;;;;;4971088;28;20026;-84
2022/07/01 06:48:28;;;;;;;8.50;2.78;;;13.10;99.90;;;;;;4970795;28;20044;-91
2022/07/01 06:50:54;;;;;;;5.50;2.78;;;13.10;99.90;;;;;;4971955;28;20126;-91
2022/07/01 06:53:19;;;;;;;5.40;2.72;;;13.20;99.90;;;;;;4977611;28;20478;-84
2022/07/01 06:55:45;;;;;;;8.65;2.85;;;13.30;99.90;;;;;;4970863;28;20098;-94
2022/07/01 06:58:11;;;;;;;11.48;2.95;;;13.40;99.90;;;;;;4972335;28;20094;-93
2022/07/01 07:00:37;;;;;;;5.10;2.40;;;13.40;99.90;;;;;;4991465;28;20109;-87
2022/07/01 07:03:03;;;;;;;5.30;2.70;;;13.50;99.90;;;;;;4980511;28;20165;-90
2022/07/01 07:05:30;;;;;;;5.35;2.47;;;13.60;99.90;;;;;;4971232;28;20027;-90
2022/07/01 07:07:56;;;;;;;6.28;2.80;;;13.60;99.90;;;;;;4970897;28;20457;-85
2022/07/01 07:10:22;;;;;;;8.07;2.40;;;13.70;99.90;;;;;;4985798;28;20027;-91
2022/07/01 07:12:48;;;;;;;14.68;3.22;;;13.70;99.90;;;;;;4970751;28;20065;-91
2022/07/01 07:15:14;;;;;;;7.07;2.80;;;13.80;99.90;;;;;;4970929;28;20045;-88
2022/07/01 07:17:39;;;;;;;9.10;2.85;;;13.90;99.90;;;;;;4971282;28;20073;-91
2022/07/01 07:20:05;;;;;;;7.30;2.70;;;13.90;99.90;;;;;;4970394;28;20027;-87
2022/07/01 07:22:31;;;;;;;7.55;2.55;;;14.00;99.90;;;;;;4985394;28;20455;-90
2022/07/01 07:24:57;;;;;;;7.43;2.30;;;14.10;99.90;;;;;;4970345;28;20051;-89
2022/07/01 07:27:22;;;;;;;10.20;2.20;;;14.10;99.90;;;;;;4969359;28;20054;-90
2022/07/01 07:29:48;;;;;;;7.40;2.38;;;14.20;99.90;;;;;;4970490;28;20027;-91
2022/07/01 07:32:14;;;;;;;7.47;2.97;;;14.30;99.90;;;;;;4969362;28;20110;-86
2022/07/01 07:34:39;;;;;;;6.25;2.20;;;14.40;99.90;;;;;;4971192;28;20105;-90
2022/07/01 07:37:05;;;;;;;6.18;1.83;;;14.40;99.90;;;;;;4985418;28;20027;-91
2022/07/01 07:39:31;;;;;;;5.20;1.70;;;14.40;99.90;;;;;;4970145;28;20465;-84
2022/07/01 07:41:57;;;;;;;7.40;2.00;;;14.50;99.90;;;;;;4970290;28;20027;-85
2022/07/01 07:44:23;;;;;;;9.93;2.28;;;14.60;99.90;;;;;;4970487;28;20046;-90
2022/07/01 07:46:49;;;;;;;5.40;1.60;;;14.70;99.90;;;;;;4970011;28;20030;-84
2022/07/01 07:49:15;;;;;;;7.07;2.25;;;14.70;99.90;;;;;;4969963;28;20027;-87
2022/07/01 07:51:40;;;;;;;7.15;3.00;;;14.90;99.90;;;;;;4986142;28;20027;-89
2022/07/01 07:54:06;;;;;;;9.38;1.92;;;15.00;99.90;;;;;;4970367;28;20026;-89
2022/07/01 07:56:32;;;;;;;8.43;2.20;;;15.00;99.90;;;;;;4970202;28;20027;-85
2022/07/01 07:58:58;;;;;;;8.15;1.73;;;15.10;99.90;;;;;;4970032;28;20117;-88
2022/07/01 08:01:24;;;;;;;6.32;1.70;;;15.00;99.90;;;;;;4970262;28;20154;-85
2022/07/01 08:03:49;;;;;;;7.88;1.60;;;15.00;99.90;;;;;;4969022;28;20043;-84
2022/07/01 08:06:15;;;;;;;2.85;1.05;;;15.10;99.90;;;;;;4970835;28;20030;-84
2022/07/01 08:08:41;;;;;;;5.80;1.35;;;15.00;99.90;;;;;;4970902;28;20097;-86
2022/07/01 08:11:07;;;;;;;11.10;1.85;;;15.00;99.90;;;;;;4970382;28;20114;-86
2022/07/01 08:13:33;;;;;;;5.05;1.50;;;15.20;99.90;;;;;;4971386;28;20054;-92
2022/07/01 08:15:59;;;;;;;6.50;1.33;;;15.20;99.90;;;;;;4973362;28;20120;-92
2022/07/01 08:18:25;;;;;;;8.80;1.40;;;15.30;99.90;;;;;;4973317;28;20117;-84
2022/07/01 08:20:52;;;;;;;5.00;1.35;;;15.60;99.90;;;;;;4973543;28;20050;-87
2022/07/01 08:23:22;;;;;;;8.75;1.60;;;15.60;99.90;;;;;;4973509;28;20027;-85
2022/07/01 08:25:48;;;;;;;5.05;1.30;;;15.80;99.90;;;;;;4988608;28;20058;-85
2022/07/01 08:28:14;;;;;;;8.32;1.30;;;15.90;99.90;;;;;;4974052;28;20474;-85
2022/07/01 08:30:40;;;;;;;8.30;1.20;;;16.00;99.90;;;;;;4989013;28;20030;-84
2022/07/01 08:33:05;;;;;;;6.53;1.42;;;16.00;99.90;;;;;;4974204;28;20023;-93
2022/07/01 08:35:31;;;;;;;7.38;1.23;;;16.10;99.90;;;;;;4973704;28;20027;-92
2022/07/01 08:37:57;;;;;;;6.18;1.40;;;16.10;99.90;;;;;;4973455;28;20038;-85
2022/07/01 08:40:30;;;;;;;2.83;0.95;;;16.10;99.90;;;;;;4973390;28;20090;-89
2022/07/01 08:42:58;;;;;;;7.47;1.40;;;16.20;99.90;;;;;;4973270;28;20035;-92
2022/07/01 08:45:26;;;;;;;2.40;1.10;;;16.20;99.90;;;;;;4973663;28;20102;-93
2022/07/01 08:47:57;;;;;;;4.75;1.15;;;16.20;99.90;;;;;;4946338;28;20027;-91
2022/07/01 08:50:24;;;;;;;7.00;1.30;;;16.20;99.90;;;;;;4941785;28;20024;-83
2022/07/01 08:52:50;;;;;;;5.07;1.20;;;16.40;99.90;;;;;;4941962;29;20487;-93
2022/07/01 08:55:15;;;;;;;5.80;1.08;;;16.40;99.90;;;;;;4944334;29;20020;-91
2022/07/01 08:57:41;;;;;;;5.35;1.27;;;16.50;99.90;;;;;;4944941;29;20620;-94
2022/07/01 09:00:08;;;;;;;3.47;1.05;;;16.60;99.90;;;;;;4944830;29;20321;-91
2022/07/01 09:02:49;;;;;;;5.35;1.13;;;16.90;99.90;;;;;;4942746;28;20050;-92
2022/07/01 09:05:14;;;;;;;5.53;1.30;;;17.10;99.90;;;;;;4942998;28;20036;-88
2022/07/01 09:07:40;;;;;;;6.20;1.13;;;17.20;99.90;;;;;;4958770;28;20031;-92
2022/07/01 09:10:14;;;;;;;4.03;1.10;;;17.10;99.90;;;;;;4942129;29;20039;-92
2022/07/01 09:12:41;;;;;;;9.65;1.60;;;17.10;99.90;;;;;;4941730;28;20031;-92
2022/07/01 09:15:26;;;;;;;5.50;1.33;;;17.30;99.90;;;;;;4943352;28;20707;-92
2022/07/01 09:18:14;;;;;;;3.25;1.00;;;17.30;99.90;;;;;;4936607;29;20130;-94
2022/07/01 09:20:41;;;;;;;;;;;17.20;99.90;;;;;;4934172;29;20075;-90
2022/07/01 09:23:10;;;;;;;5.88;1.08;;;17.10;99.90;;;;;;4949078;29;20775;-91
2022/07/01 09:25:44;;;;;;;4.00;1.15;;;17.10;99.90;;;;;;4934094;29;20039;-91
2022/07/01 09:28:23;;;;;;;6.20;1.13;;;17.10;99.90;;;;;;4934588;29;20032;-92
2022/07/01 09:30:51;;;;;;;4.32;1.05;;;17.20;99.90;;;;;;4939899;29;20026;-84
2022/07/01 09:33:19;;;;;;;2.55;0.88;;;17.30;99.90;;;;;;4954190;29;20028;-84
2022/07/01 09:35:46;;;;;;;5.65;1.10;;;17.50;99.90;;;;;;4948573;29;20480;-82
2022/07/01 09:38:14;;;;;;;6.00;1.20;;;17.60;99.90;;;;;;4946014;29;20180;-92
2022/07/01 09:40:46;;;;;;;4.40;0.80;;;17.80;99.90;;;;;;4942977;29;20032;-82
2022/07/01 09:43:23;;;;;;;5.15;0.95;;;18.10;99.90;;;;;;4934437;29;20027;-88
2022/07/01 09:46:00;;;;;;;3.50;1.00;;;18.20;99.90;;;;;;4933802;29;20107;-82
2022/07/01 09:48:33;;;;;;;3.88;0.77;;;18.00;99.90;;;;;;4933034;29;20082;-93
2022/07/01 09:51:00;;;;;;;4.65;1.00;;;18.00;99.90;;;;;;4933903;29;20027;-92
2022/07/01 09:53:26;;;;;;;4.93;0.90;;;17.80;99.90;;;;;;4932826;29;20035;-92
2022/07/01 09:55:52;;;;;;;9.95;1.20;;;17.80;99.90;;;;;;4933429;29;20027;-82
2022/07/01 09:58:18;;;;;;;2.45;1.13;;;17.60;99.90;;;;;;4933882;29;20038;-84
2022/07/01 10:00:44;;;;;;;2.88;0.82;;;17.40;99.90;;;;;;4934028;29;20103;-89
2022/07/01 10:03:10;;;;;;;5.90;0.93;;;17.30;99.90;;;;;;4932703;29;20152;-86
2022/07/01 10:05:42;;;;;;;4.35;0.98;;;17.30;99.90;;;;;;4948117;29;20032;-85
2022/07/01 10:08:19;;;;;;;3.95;1.05;;;17.20;99.90;;;;;;4931869;29;20273;-86
2022/07/01 10:10:51;;;;;;;3.15;0.95;;;17.30;99.90;;;;;;4934246;29;20027;-92
2022/07/01 10:13:21;;;;;;;3.30;0.88;;;17.40;99.90;;;;;;4932782;29;20067;-91
2022/07/01 10:15:48;;;;;;;8.50;1.02;;;17.60;99.90;;;;;;4934230;29;20049;-89
2022/07/01 10:18:22;;;;;;;2.60;0.98;;;17.60;99.90;;;;;;4932149;29;20038;-91
2022/07/01 10:20:48;;;;;;;4.25;1.05;;;17.60;99.90;;;;;;4949034;29;20028;-90
2022/07/01 10:23:15;;;;;;;1.40;0.75;;;17.60;99.90;;;;;;4949074;29;20020;-92
2022/07/01 10:25:42;;;;;;;5.10;1.00;;;17.60;99.90;;;;;;4933258;29;20036;-94
2022/07/01 10:28:41;;;;;;;2.65;0.93;;;17.60;99.90;;;;;;4933221;29;20495;-87
2022/07/01 10:31:15;;;;;;;5.72;1.00;;;17.70;99.90;;;;;;4932839;29;20030;-90
2022/07/01 10:33:53;;;;;;;4.07;1.15;;;17.80;99.90;;;;;;4932114;29;20042;-89
2022/07/01 10:36:27;;;;;;;2.50;1.08;;;17.60;99.90;;;;;;4947861;28;20488;-94
2022/07/01 10:39:13;;;;;;;1.75;0.85;;;17.50;99.90;;;;;;4939916;29;20118;-94
2022/07/01 10:41:55;;;;;;;5.32;1.02;;;17.50;99.90;;;;;;4938179;29;20020;-90
2022/07/01 10:44:25;;;;;;;3.08;1.02;;;17.60;99.90;;;;;;4939592;29;20031;-90
2022/07/01 10:47:04;;;;;;;3.72;0.88;;;17.80;99.90;;;;;;4937279;29;20055;-89
2022/07/01 10:49:36;;;;;;;5.35;1.10;;;17.90;99.90;;;;;;4939704;29;20035;-87
2022/07/01 10:52:07;;;;;;;4.45;0.95;;;18.20;99.90;;;;;;4939712;29;20086;-83
2022/07/01 10:54:36;;;;;;;4.07;1.00;;;18.30;99.90;;;;;;4941190;28;20027;-92
2022/07/01 10:57:20;;;;;;;6.40;1.30;;;18.20;99.90;;;;;;4943161;29;20019;-92
2022/07/01 11:00:00;;;;;;;5.65;0.77;;;18.20;99.90;;;;;;4942425;29;20574;-92
2022/07/01 11:02:31;;;;;;;2.47;0.80;;;18.20;99.90;;;;;;4941781;29;20023;-93
2022/07/01 11:05:07;;;;;;;2.65;0.90;;;18.10;99.90;;;;;;4940971;29;20031;-92
2022/07/01 11:07:34;;;;;;;5.38;1.13;;;18.00;99.90;;;;;;4942057;29;20036;-90
2022/07/01 11:10:02;;;;;;;5.43;1.05;;;18.00;99.90;;;;;;4940667;28;20067;-85
2022/07/01 11:12:29;;;;;;;3.90;1.00;;;18.00;99.90;;;;;;4932158;29;20050;-86
2022/07/01 11:14:57;;;;;;;2.50;0.98;;;18.00;99.90;;;;;;4931926;29;20127;-84
2022/07/01 11:17:23;;;;;;;5.20;1.17;;;;;;;;;;4932267;29;20384;-91
2022/07/01 11:19:56;;;;;;;6.72;1.10;;;18.00;99.90;;;;;;4932415;29;20030;-82
2022/07/01 11:22:26;;;;;;;5.13;1.23;;;18.20;99.90;;;;;;4932335;29;20032;-89
2022/07/01 11:24:54;;;;;;;3.22;0.95;;;18.30;99.90;;;;;;4932436;29;20463;-91
2022/07/01 11:27:24;;;;;;;1.50;0.85;;;18.20;99.80;;;;;;4932286;29;20059;-89
2022/07/01 11:29:55;;;;;;;2.78;0.82;;;18.40;99.90;;;;;;4933372;29;20035;-83
2022/07/01 11:32:26;;;;;;;2.42;0.77;;;;;;;;;;4932763;29;20023;-82
2022/07/01 11:34:53;;;;;;;2.40;1.38;;;;;;;;;;4931892;29;20102;-94
2022/07/01 11:40:11;;;;;;;5.20;1.00;;;18.90;98.10;;;;;;4932162;29;20039;-93
2022/07/01 11:42:37;;;;;;;1.05;0.60;;;18.70;95.00;;;;;;4931300;29;20028;-92
2022/07/01 11:45:03;;;;;;;4.50;0.93;;;18.60;96.60;;;;;;4932246;29;20027;-92
2022/07/01 11:47:29;;;;;;;2.90;1.00;;;18.60;94.60;;;;;;4932855;29;20407;-83
2022/07/01 11:49:56;;;;;;;2.13;0.80;;;18.60;97.10;;;;;;4935304;29;20024;-84
2022/07/01 11:52:23;;;;;;;1.90;0.73;;;18.70;98.40;;;;;;4935789;29;20019;-93
2022/07/01 11:54:59;;;;;;;4.55;0.88;;;18.70;95.90;;;;;;4936582;29;20023;-93
2022/07/01 11:57:29;;;;;;;2.03;0.90;;;18.80;95.40;;;;;;4935979;29;20027;-92
2022/07/01 11:59:56;;;;;;;2.67;0.80;;;18.80;95.70;;;;;;4935646;29;20115;-93
2022/07/01 12:02:24;;;;;;;0.95;0.65;;;18.90;92.60;;;;;;4935248;29;20492;-83
2022/07/01 12:04:51;;;;;;;4.13;0.80;;;18.90;95.50;;;;;;4936737;29;20477;-91
2022/07/01 12:07:24;;;;;;;2.28;0.80;;;19.10;95.70;;;;;;4937229;29;20023;-93
2022/07/01 12:09:50;;;;;;;2.75;0.70;;;19.30;97.50;;;;;;4943347;29;20421;-83
2022/07/01 12:12:17;;;;;;;4.00;0.88;;;19.40;93.90;;;;;;4951806;29;20079;-83
2022/07/01 12:14:50;;;;;;;1.58;0.65;;;19.70;90.40;;;;;;4949963;29;20027;-83
2022/07/01 12:17:17;;;;;;;2.33;0.70;;;19.70;90.10;;;;;;4965398;29;20060;-86
2022/07/01 12:19:46;;;;;;;5.88;0.95;;;19.50;87.40;;;;;;4946713;29;20039;-92
2022/07/01 12:22:13;;;;;;;2.20;0.80;;;19.40;89.10;;;;;;4935867;29;20237;-92
2022/07/01 12:24:39;;;;;;;3.38;0.80;;;19.30;85.80;;;;;;4935597;29;20048;-92
2022/07/01 12:27:06;;;;;;;3.20;0.77;;;19.30;90.00;;;;;;4935205;29;20040;-92
2022/07/01 12:29:50;;;;;;;4.75;0.98;;;19.40;90.20;;;;;;4935299;29;20020;-94
2022/07/01 12:32:22;;;;;;;3.22;0.95;;;19.50;91.60;;;;;;4938575;29;20042;-92
2022/07/01 12:34:55;;;;;;;2.47;0.75;;;19.80;92.60;;;;;;4954273;29;20031;-89
2022/07/01 12:37:30;;;;;;;3.50;0.80;;;19.90;91.80;;;;;;4955123;28;20392;-92
2022/07/01 12:40:00;;;;;;;3.30;0.70;;;20.00;85.70;;;;;;4954086;28;20491;-86
2022/07/01 12:42:38;;;;;;;0.68;0.60;;;19.90;84.60;;;;;;4953719;28;20106;-83
2022/07/01 12:45:09;;;;;;;3.22;0.80;;;19.80;79.50;;;;;;4953902;28;20028;-87
2022/07/01 12:47:37;;;;;;;2.88;0.85;;;19.80;83.30;;;;;;4946952;28;20031;-85
2022/07/01 12:50:22;;;;;;;1.40;0.65;;;19.80;83.30;;;;;;4934511;29;20396;-91
2022/07/01 12:53:05;;;;;;;7.50;1.05;;;19.90;88.20;;;;;;4934608;29;20400;-82
2022/07/01 12:55:39;;;;;;;6.85;0.85;;;20.10;88.10;;;;;;4934159;29;20032;-84
2022/07/01 12:58:09;;;;;;;2.75;0.73;;;20.20;83.80;;;;;;4949052;29;20062;-86
2022/07/01 13:00:35;;;;;;;3.80;0.70;;;20.10;84.10;;;;;;4933885;29;20082;-85
2022/07/01 13:03:02;;;;;;;2.53;1.10;;;20.10;80.60;;;;;;4932900;29;20034;-88
2022/07/01 13:05:30;;;;;;;3.00;0.80;;;20.00;83.20;;;;;;4934639;29;20024;-86
2022/07/01 13:07:56;;;;;;;2.45;0.70;;;20.00;85.00;;;;;;4933163;29;20035;-83